Time;durP1;ratioP1;P1;durP2;ratioP2;P2;SDS_P1;SDS_P2;PMS_P1;PMS_P2;Temp;Humidity;BMP_temperature;BMP_pressure;BME280_temperature;BME280_humidity;BME280_pressure;Samples;Min_cycle;Max_cycle;Signal;HPM_P1;HPM_P2
2021/06/22 00:01:43;;;;;;;14.13;6.50;;;;;;;11.80;100.00;101538.56;3591272;39;20052;-64
2021/06/22 00:04:10;;;;;;;14.45;6.85;;;;;;;11.78;100.00;101540.56;3590492;39;20306;-63
2021/06/22 00:06:37;;;;;;;13.80;6.57;;;;;;;11.84;100.00;101542.75;3591118;39;20032;-63
2021/06/22 00:09:04;;;;;;;13.88;7.57;;;;;;;11.73;100.00;101556.25;3591663;39;20395;-63
2021/06/22 00:11:30;;;;;;;13.60;6.85;;;;;;;11.69;100.00;101554.78;3591018;39;20060;-63
2021/06/22 00:13:58;;;;;;;9.75;6.10;;;;;;;11.67;100.00;101563.00;3590560;39;20056;-63
2021/06/22 00:16:24;;;;;;;11.23;6.20;;;;;;;11.64;100.00;101559.72;3591746;39;20329;-63
2021/06/22 00:18:51;;;;;;;11.10;6.20;;;;;;;11.66;100.00;101563.13;3586881;39;20046;-65
2021/06/22 00:21:19;;;;;;;19.38;7.68;;;;;;;11.57;100.00;101562.03;3588161;39;20071;-64
2021/06/22 00:23:45;;;;;;;12.55;7.00;;;;;;;11.53;100.00;101566.84;3590900;39;20334;-63
2021/06/22 00:26:12;;;;;;;14.07;7.00;;;;;;;11.50;100.00;101571.63;3592050;39;20033;-64
2021/06/22 00:28:38;;;;;;;10.27;6.13;;;;;;;11.51;100.00;101568.81;3591098;39;20084;-63
2021/06/22 00:31:05;;;;;;;12.23;6.95;;;;;;;11.47;100.00;101575.44;3588096;39;20044;-64
2021/06/22 00:33:31;;;;;;;14.05;6.60;;;;;;;11.43;100.00;101568.56;3592025;39;20070;-63
2021/06/22 00:35:58;;;;;;;13.68;8.43;;;;;;;11.34;100.00;101566.63;3591804;39;20039;-63
2021/06/22 00:38:25;;;;;;;11.95;7.28;;;;;;;11.32;100.00;101572.13;3591395;39;20306;-64
2021/06/22 00:40:52;;;;;;;14.90;7.22;;;;;;;11.31;100.00;101569.56;3590717;39;20052;-64
2021/06/22 00:43:18;;;;;;;12.50;7.10;;;;;;;11.25;100.00;101570.91;3591176;39;20057;-64
2021/06/22 00:45:45;;;;;;;15.40;7.95;;;;;;;11.25;100.00;101567.34;3592314;39;20284;-63
2021/06/22 00:48:11;;;;;;;13.00;6.53;;;;;;;11.27;100.00;101560.00;3590239;39;20758;-64
2021/06/22 00:50:38;;;;;;;11.73;6.97;;;;;;;11.21;100.00;101562.19;3591066;39;20049;-65
2021/06/22 00:53:04;;;;;;;13.15;6.95;;;;;;;11.23;100.00;101564.78;3586470;39;20040;-64
2021/06/22 00:55:33;;;;;;;12.13;6.45;;;;;;;11.17;100.00;101567.97;3591078;39;20411;-64
2021/06/22 00:58:00;;;;;;;9.67;7.27;;;;;;;11.13;100.00;101566.47;3592364;39;20121;-64
2021/06/22 01:00:36;;;;;;;14.98;7.20;;;;;;;11.11;100.00;101549.59;3631565;22;20086;-64
2021/06/22 01:03:03;;;;;;;12.00;7.35;;;;;;;11.09;100.00;101544.34;3598660;39;20039;-64
2021/06/22 01:05:30;;;;;;;13.50;7.55;;;;;;;11.08;100.00;101555.22;3601548;39;20052;-64
2021/06/22 01:07:58;;;;;;;14.80;7.15;;;;;;;11.12;100.00;101552.16;3602002;39;20078;-63
2021/06/22 01:10:26;;;;;;;12.45;7.22;;;;;;;11.12;100.00;101557.56;3600526;39;20112;-64
2021/06/22 01:12:55;;;;;;;12.07;6.85;;;;;;;11.31;100.00;101567.72;3602066;39;20063;-64
2021/06/22 01:15:23;;;;;;;11.63;6.75;;;;;;;11.37;100.00;101560.97;3601043;39;20087;-63
2021/06/22 01:17:53;;;;;;;8.68;6.72;;;;;;;11.34;100.00;101553.16;3602218;39;20051;-64
2021/06/22 01:20:22;;;;;;;;;;;;;;;11.36;100.00;101549.31;3600431;39;20069;-63
2021/06/22 01:22:50;;;;;;;15.38;7.35;;;;;;;11.39;100.00;101559.00;3601033;39;19951;-64
2021/06/22 01:25:17;;;;;;;14.43;7.50;;;;;;;11.45;100.00;101569.28;3600215;39;20059;-64
2021/06/22 01:27:44;;;;;;;16.13;7.28;;;;;;;11.41;100.00;101573.22;3601712;39;20051;-64
2021/06/22 01:30:11;;;;;;;12.73;6.63;;;;;;;11.27;100.00;101565.41;3600594;39;20046;-64
2021/06/22 01:32:38;;;;;;;12.27;7.10;;;;;;;11.30;100.00;101567.84;3600244;39;20371;-64
2021/06/22 01:35:06;;;;;;;15.27;7.57;;;;;;;11.34;100.00;101561.22;3600341;39;20390;-64
2021/06/22 01:37:32;;;;;;;13.35;7.72;;;;;;;11.39;100.00;101559.88;3598343;39;20041;-65
2021/06/22 01:40:04;;;;;;;13.60;7.80;;;;;;;11.40;100.00;101575.06;3599828;39;20374;-64
2021/06/22 01:42:31;;;;;;;14.70;7.30;;;;;;;11.36;100.00;101573.56;3601481;39;20046;-65
2021/06/22 01:44:58;;;;;;;10.27;6.82;;;;;;;11.27;100.00;101571.63;3600926;39;20054;-64
2021/06/22 01:47:24;;;;;;;15.80;7.20;;;;;;;11.20;100.00;101571.28;3600964;39;20056;-64
2021/06/22 01:49:57;;;;;;;11.55;7.53;;;;;;;11.18;100.00;101578.63;3599359;39;20459;-64
2021/06/22 01:52:24;;;;;;;17.67;7.07;;;;;;;11.25;100.00;101576.31;3600784;39;20047;-64
2021/06/22 01:54:53;;;;;;;13.18;8.75;;;;;;;11.25;100.00;101584.38;3601466;39;20032;-64
2021/06/22 01:59:46;;;;;;;12.95;6.82;;;;;;;11.44;100.00;101586.47;3611841;23;19952;-64
2021/06/22 02:02:13;;;;;;;13.73;8.43;;;;;;;11.57;100.00;101584.47;3591087;39;20090;-64
2021/06/22 02:04:39;;;;;;;14.98;8.05;;;;;;;11.50;100.00;101569.78;3590399;39;20053;-65
2021/06/22 02:07:05;;;;;;;11.95;6.93;;;;;;;11.55;100.00;101564.84;3591061;40;20431;-63
2021/06/22 02:09:32;;;;;;;17.40;8.55;;;;;;;11.58;100.00;101580.78;3591619;39;20047;-65
2021/06/22 02:11:58;;;;;;;14.68;7.47;;;;;;;11.53;100.00;101576.78;3590985;39;20300;-64
2021/06/22 02:14:25;;;;;;;13.98;7.45;;;;;;;11.60;100.00;101582.50;3589546;39;20041;-63
2021/06/22 02:16:53;;;;;;;15.82;7.70;;;;;;;11.63;100.00;101571.47;3590431;39;20048;-64
2021/06/22 02:19:20;;;;;;;14.98;8.20;;;;;;;11.67;100.00;101556.75;3589968;39;20072;-62
2021/06/22 02:21:47;;;;;;;15.07;7.07;;;;;;;11.82;100.00;101560.91;3590352;39;20037;-64
2021/06/22 02:24:13;;;;;;;12.45;7.32;;;;;;;11.87;100.00;101557.81;3589733;40;20077;-64
2021/06/22 02:26:39;;;;;;;14.82;7.65;;;;;;;11.83;100.00;101559.03;3591584;39;20024;-64
2021/06/22 02:29:06;;;;;;;15.00;7.28;;;;;;;11.80;100.00;101557.44;3591228;39;20052;-63
2021/06/22 02:31:33;;;;;;;14.15;7.28;;;;;;;11.86;100.00;101556.94;3591792;39;20056;-64
2021/06/22 02:34:01;;;;;;;15.20;7.50;;;;;;;11.85;100.00;101554.38;3592261;40;20064;-63
2021/06/22 02:36:27;;;;;;;20.45;7.40;;;;;;;11.80;100.00;101549.38;3591603;39;20044;-64
2021/06/22 02:38:54;;;;;;;15.82;6.40;;;;;;;11.81;100.00;101559.19;3590957;39;20044;-64
2021/06/22 02:41:20;;;;;;;15.65;5.95;;;;;;;11.80;100.00;101551.22;3592371;39;20035;-64
2021/06/22 02:43:46;;;;;;;15.68;6.15;;;;;;;11.81;100.00;101558.34;3591218;39;20058;-64
2021/06/22 02:46:13;;;;;;;13.45;5.55;;;;;;;11.89;100.00;101558.53;3591647;40;20092;-64
2021/06/22 02:48:39;;;;;;;10.05;5.30;;;;;;;11.92;100.00;101545.66;3590952;39;20045;-64
2021/06/22 02:51:08;;;;;;;16.73;6.40;;;;;;;11.89;100.00;101553.97;3592212;39;20076;-64
2021/06/22 02:53:34;;;;;;;15.75;5.63;;;;;;;11.89;100.00;101556.69;3591206;39;20141;-64
2021/06/22 02:56:01;;;;;;;15.20;5.93;;;;;;;11.92;100.00;101561.84;3591502;39;20088;-64
2021/06/22 02:58:27;;;;;;;12.70;6.45;;;;;;;12.02;100.00;101558.41;3587652;39;20043;-64
2021/06/22 03:00:54;;;;;;;14.50;5.47;;;;;;;12.00;100.00;101557.66;3591042;39;20313;-64
2021/06/22 03:03:20;;;;;;;16.58;6.22;;;;;;;12.02;100.00;101556.56;3591844;39;20341;-63
2021/06/22 03:08:16;;;;;;;16.17;6.07;;;;;;;12.06;100.00;101559.88;3621953;23;20040;-64
2021/06/22 03:10:43;;;;;;;13.95;5.95;;;;;;;12.17;100.00;101569.75;3592007;39;20068;-64
2021/06/22 03:13:09;;;;;;;13.85;5.80;;;;;;;12.24;100.00;101576.34;3591613;39;20079;-64
2021/06/22 03:15:35;;;;;;;16.10;6.10;;;;;;;12.25;100.00;101570.81;3592418;39;20044;-65
2021/06/22 03:18:02;;;;;;;19.95;7.15;;;;;;;12.33;100.00;101570.16;3591502;39;20044;-64
2021/06/22 03:20:28;;;;;;;14.52;6.95;;;;;;;12.38;100.00;101578.75;3592069;39;20056;-63
2021/06/22 03:22:55;;;;;;;20.95;7.53;;;;;;;12.39;100.00;101587.69;3591362;39;20044;-64
2021/06/22 03:25:22;;;;;;;18.33;8.05;;;;;;;12.36;100.00;101579.84;3592472;39;20084;-64
2021/06/22 03:27:49;;;;;;;21.70;8.57;;;;;;;12.37;100.00;101578.88;3589982;39;20060;-64
2021/06/22 03:30:16;;;;;;;18.40;8.63;;;;;;;12.33;100.00;101577.41;3591633;39;20056;-64
2021/06/22 03:32:45;;;;;;;16.13;9.40;;;;;;;12.33;100.00;101574.72;3593747;39;20048;-63
2021/06/22 03:35:14;;;;;;;17.02;9.32;;;;;;;12.27;100.00;101578.78;3643745;23;20040;-64
2021/06/22 03:37:40;;;;;;;20.53;9.37;;;;;;;12.18;100.00;101583.13;3582046;40;20115;-64
2021/06/22 03:40:08;;;;;;;19.10;10.18;;;;;;;12.25;100.00;101588.88;3579196;39;20411;-64
2021/06/22 03:42:37;;;;;;;21.33;9.65;;;;;;;12.25;100.00;101595.09;3581534;40;20406;-63
2021/06/22 03:45:05;;;;;;;19.20;10.52;;;;;;;12.27;100.00;101594.97;3582547;40;20315;-64
2021/06/22 03:47:32;;;;;;;20.95;10.82;;;;;;;12.26;100.00;101595.97;3581888;40;20118;-64
2021/06/22 03:49:59;;;;;;;17.95;10.95;;;;;;;12.11;100.00;101606.19;3581637;40;20045;-64
2021/06/22 03:52:25;;;;;;;19.25;10.85;;;;;;;12.19;100.00;101602.84;3581090;40;20057;-64
2021/06/22 03:54:52;;;;;;;17.92;10.30;;;;;;;12.14;100.00;101607.78;3580745;40;20052;-64
2021/06/22 03:57:18;;;;;;;17.63;10.65;;;;;;;12.12;100.00;101605.22;3580575;40;20079;-65
2021/06/22 03:59:46;;;;;;;19.50;10.57;;;;;;;12.18;100.00;101604.69;3582337;40;20045;-64
2021/06/22 04:02:12;;;;;;;22.17;11.10;;;;;;;12.19;100.00;101606.44;3581844;40;20059;-64
2021/06/22 04:05:01;;;;;;;17.75;10.80;;;;;;;12.12;100.00;101602.53;3604227;23;20056;-64
2021/06/22 04:07:28;;;;;;;18.90;11.40;;;;;;;12.21;100.00;101604.44;3520131;40;20048;-64
2021/06/22 04:09:54;;;;;;;20.58;12.52;;;;;;;12.11;100.00;101610.75;3518043;40;21409;-63
2021/06/22 04:12:20;;;;;;;21.52;12.05;;;;;;;12.11;100.00;101608.91;3519941;40;20072;-64
2021/06/22 04:14:48;;;;;;;17.50;11.30;;;;;;;12.16;100.00;101617.47;3520214;40;20053;-65
2021/06/22 04:17:15;;;;;;;21.73;11.95;;;;;;;12.17;100.00;101611.06;3520496;40;20047;-65
2021/06/22 04:19:41;;;;;;;21.42;12.07;;;;;;;12.10;100.00;101617.97;3519803;40;20055;-63
2021/06/22 04:22:08;;;;;;;20.25;11.52;;;;;;;12.14;100.00;101613.19;3520755;40;20340;-65
2021/06/22 04:24:34;;;;;;;24.20;11.85;;;;;;;12.21;100.00;101636.81;3521029;40;20271;-65
2021/06/22 04:27:01;;;;;;;21.48;12.15;;;;;;;12.29;100.00;101638.03;3521007;40;20048;-64
2021/06/22 04:29:27;;;;;;;21.55;12.82;;;;;;;12.40;100.00;101638.00;3521758;40;20038;-64
2021/06/22 04:31:55;;;;;;;19.45;12.82;;;;;;;12.43;100.00;101646.69;3516464;40;20079;-64
2021/06/22 04:34:22;;;;;;;23.98;11.88;;;;;;;12.54;100.00;101647.63;3519806;40;20047;-64
2021/06/22 04:36:48;;;;;;;23.00;12.43;;;;;;;12.62;100.00;101639.75;3519827;40;20048;-64
2021/06/22 04:39:15;;;;;;;20.65;12.60;;;;;;;12.61;100.00;101632.63;3519718;40;20309;-65
2021/06/22 04:41:43;;;;;;;21.17;13.00;;;;;;;12.68;100.00;101632.97;3522847;40;20055;-65
2021/06/22 04:44:09;;;;;;;18.90;12.90;;;;;;;12.79;100.00;101630.19;3520371;40;20072;-64
2021/06/22 04:46:36;;;;;;;27.15;13.35;;;;;;;12.82;100.00;101642.56;3520543;40;20059;-65
2021/06/22 04:49:04;;;;;;;21.73;14.18;;;;;;;12.61;100.00;101633.47;3520696;40;20087;-64
2021/06/22 04:51:31;;;;;;;19.98;13.90;;;;;;;12.61;100.00;101638.03;3520414;40;20309;-65
2021/06/22 04:53:57;;;;;;;23.70;15.25;;;;;;;12.60;100.00;101642.56;3518946;40;20051;-64
2021/06/22 04:56:25;;;;;;;25.38;15.18;;;;;;;12.57;100.00;101642.84;3519901;40;20051;-64
2021/06/22 04:58:52;;;;;;;26.90;14.05;;;;;;;12.53;100.00;101638.69;3521055;40;20044;-65
2021/06/22 05:01:19;;;;;;;28.38;14.73;;;;;;;12.51;100.00;101645.19;3514755;40;20059;-65
2021/06/22 05:03:46;;;;;;;25.35;14.68;;;;;;;12.61;100.00;101638.88;3514734;40;20056;-64
2021/06/22 05:06:14;;;;;;;28.42;14.88;;;;;;;13.06;100.00;101639.59;3521889;40;20054;-65
2021/06/22 05:08:40;;;;;;;24.08;13.27;;;;;;;13.23;100.00;101644.38;3520207;40;20040;-65
2021/06/22 05:11:07;;;;;;;20.73;14.60;;;;;;;13.42;100.00;101640.09;3520645;40;20040;-64
2021/06/22 05:13:34;;;;;;;21.00;14.30;;;;;;;13.38;100.00;101641.38;3521974;40;20066;-65
2021/06/22 05:16:00;;;;;;;29.02;15.70;;;;;;;13.43;100.00;101641.84;3521336;40;20060;-65
2021/06/22 05:18:27;;;;;;;23.08;14.88;;;;;;;13.20;100.00;101639.25;3522047;40;20428;-66
2021/06/22 05:24:20;;;;;;;21.02;13.63;;;;;;;13.06;100.00;101647.69;3587611;39;20059;-65
2021/06/22 05:26:47;;;;;;;25.15;15.25;;;;;;;12.87;100.00;101646.59;3590587;39;20403;-65
2021/06/22 05:29:14;;;;;;;26.27;14.98;;;;;;;12.95;100.00;101645.94;3590560;39;20125;-64
2021/06/22 05:31:41;;;;;;;25.35;14.95;;;;;;;12.82;100.00;101650.69;3589842;39;20062;-65
2021/06/22 05:34:07;;;;;;;23.00;14.88;;;;;;;13.17;100.00;101650.34;3588522;39;20392;-62
2021/06/22 05:36:34;;;;;;;25.27;15.75;;;;;;;13.18;100.00;101645.81;3588875;39;20040;-64
2021/06/22 05:39:00;;;;;;;25.13;15.25;;;;;;;13.30;100.00;101645.56;3587271;39;20055;-64
2021/06/22 05:41:28;;;;;;;30.90;15.60;;;;;;;13.86;100.00;101646.09;3590789;39;21034;-64
2021/06/22 05:43:55;;;;;;;20.27;14.35;;;;;;;13.74;100.00;101655.34;3586569;39;20033;-65
2021/06/22 05:46:21;;;;;;;26.75;14.75;;;;;;;13.25;100.00;101663.16;3590309;39;20058;-65
2021/06/22 05:48:47;;;;;;;24.25;14.95;;;;;;;13.21;100.00;101657.19;3592735;39;20054;-64
2021/06/22 05:51:14;;;;;;;25.88;14.63;;;;;;;13.35;100.00;101660.56;3648544;23;20072;-65
2021/06/22 05:53:40;;;;;;;25.83;15.10;;;;;;;13.44;100.00;101662.44;3528476;40;20051;-65
2021/06/22 05:56:07;;;;;;;23.20;15.75;;;;;;;13.44;100.00;101657.91;3529021;40;20055;-63
2021/06/22 05:58:35;;;;;;;25.35;15.63;;;;;;;13.58;100.00;101659.38;3529376;40;20042;-64
2021/06/22 06:01:01;;;;;;;24.33;15.13;;;;;;;13.51;100.00;101647.41;3526116;40;20047;-65
2021/06/22 06:03:28;;;;;;;21.52;14.02;;;;;;;13.52;100.00;101653.69;3529225;40;20055;-64
2021/06/22 06:05:54;;;;;;;24.33;15.27;;;;;;;13.62;100.00;101654.56;3529690;40;20405;-65
2021/06/22 06:08:21;;;;;;;22.77;14.77;;;;;;;13.69;100.00;101663.84;3530488;40;20070;-64
2021/06/22 06:10:47;;;;;;;24.17;14.98;;;;;;;13.69;100.00;101657.56;3531134;40;20367;-65
2021/06/22 06:13:14;;;;;;;23.75;14.15;;;;;;;13.56;100.00;101655.09;3530830;40;20043;-66
2021/06/22 06:15:42;;;;;;;26.92;14.48;;;;;;;13.57;100.00;101660.38;3529126;40;20056;-66
2021/06/22 06:18:08;;;;;;;23.00;15.50;;;;;;;13.65;100.00;101668.66;3531374;40;20043;-65
2021/06/22 06:20:35;;;;;;;18.65;14.10;;;;;;;13.93;100.00;101658.09;3532508;40;20053;-65
2021/06/22 06:23:02;;;;;;;20.05;13.98;;;;;;;14.15;100.00;101659.69;3531768;40;20070;-64
2021/06/22 06:25:28;;;;;;;22.58;15.00;;;;;;;14.25;100.00;101659.72;3529596;40;20046;-65
2021/06/22 06:27:58;;;;;;;22.00;14.50;;;;;;;14.51;100.00;101645.63;3529609;40;20895;-65
2021/06/22 06:30:28;;;;;;;22.02;14.07;;;;;;;14.54;100.00;101664.28;3529382;40;20048;-64
2021/06/22 06:32:56;;;;;;;21.05;13.10;;;;;;;14.47;100.00;101664.00;3532530;40;20306;-63
2021/06/22 06:35:24;;;;;;;17.45;12.57;;;;;;;14.64;100.00;101662.47;3530172;40;20438;-64
2021/06/22 06:37:52;;;;;;;20.10;12.13;;;;;;;14.75;100.00;101671.44;3544298;40;20322;-64
2021/06/22 06:40:18;;;;;;;30.63;13.30;;;;;;;14.52;100.00;101669.00;3532532;40;20147;-64
2021/06/22 06:42:45;;;;;;;21.02;13.82;;;;;;;14.86;100.00;101668.59;3531706;40;20580;-63
2021/06/22 06:45:14;;;;;;;22.58;13.18;;;;;;;14.79;100.00;101673.72;3531070;40;20291;-65
2021/06/22 06:47:40;;;;;;;20.88;12.88;;;;;;;14.74;100.00;101675.16;3534331;40;20421;-63
2021/06/22 06:50:09;;;;;;;23.27;13.27;;;;;;;14.63;100.00;101676.16;3544230;40;20479;-64
2021/06/22 06:52:36;;;;;;;20.38;13.73;;;;;;;14.91;100.00;101679.00;3538309;40;20031;-64
2021/06/22 06:55:03;;;;;;;20.35;12.63;;;;;;;14.83;100.00;101672.44;3538154;40;20049;-65
2021/06/22 06:57:29;;;;;;;18.80;13.35;;;;;;;14.74;100.00;101677.84;3541156;40;20059;-65
2021/06/22 06:59:56;;;;;;;20.48;12.90;;;;;;;14.65;100.00;101679.56;3542437;40;20059;-64
2021/06/22 07:02:22;;;;;;;19.42;12.43;;;;;;;14.42;100.00;101678.97;3541883;40;20320;-63
2021/06/22 07:04:49;;;;;;;19.52;11.98;;;;;;;14.62;100.00;101680.72;3541444;40;20062;-63
2021/06/22 07:07:17;;;;;;;15.63;11.52;;;;;;;14.52;100.00;101680.69;3538537;40;20070;-64
2021/06/22 07:09:43;;;;;;;17.75;10.88;;;;;;;14.18;100.00;101680.22;3539529;40;20047;-64
2021/06/22 07:12:10;;;;;;;18.55;11.85;;;;;;;14.13;100.00;101677.94;3544470;40;20133;-64
2021/06/22 07:14:37;;;;;;;17.45;11.15;;;;;;;14.10;100.00;101680.06;3546933;40;20398;-64
2021/06/22 07:17:04;;;;;;;16.02;11.10;;;;;;;14.11;100.00;101681.78;3540550;40;20059;-63
2021/06/22 07:19:30;;;;;;;20.13;13.00;;;;;;;14.34;100.00;101679.69;3542599;40;20061;-63
2021/06/22 07:21:57;;;;;;;16.98;11.98;;;;;;;14.49;100.00;101686.38;3538425;40;20398;-62
2021/06/22 07:24:25;;;;;;;15.85;10.80;;;;;;;14.75;100.00;101679.56;3535776;40;20374;-64
2021/06/22 07:26:51;;;;;;;17.55;10.40;;;;;;;14.75;100.00;101680.41;3535690;40;20168;-65
2021/06/22 07:29:18;;;;;;;15.93;11.10;;;;;;;14.63;100.00;101677.00;3540488;40;20395;-63
2021/06/22 07:31:44;;;;;;;16.50;11.00;;;;;;;14.62;100.00;101679.84;3536522;40;20112;-63
2021/06/22 07:34:11;;;;;;;17.20;10.50;;;;;;;14.55;100.00;101682.25;3536261;40;20050;-65
2021/06/22 07:36:37;;;;;;;15.20;10.43;;;;;;;14.69;100.00;101664.75;3535908;40;20352;-63
2021/06/22 07:39:05;;;;;;;16.70;10.55;;;;;;;14.93;100.00;101668.84;3535071;40;20449;-63
2021/06/22 07:41:33;;;;;;;18.60;9.85;;;;;;;15.04;100.00;101674.97;3537504;40;20095;-63
2021/06/22 07:43:59;;;;;;;14.38;10.30;;;;;;;15.21;100.00;101670.66;3540908;40;20329;-63
2021/06/22 07:46:26;;;;;;;14.98;9.45;;;;;;;15.51;100.00;101682.25;3552613;40;20078;-63
2021/06/22 07:51:55;;;;;;;12.13;9.30;;;;;;;15.66;100.00;101682.63;3581753;23;20123;-65
2021/06/22 07:54:21;;;;;;;12.38;7.68;;;;;;;16.03;100.00;101687.22;3578467;40;20032;-64
2021/06/22 07:56:49;;;;;;;10.60;7.32;;;;;;;15.98;100.00;101691.38;3578498;40;20055;-64
2021/06/22 07:59:16;;;;;;;14.68;7.85;;;;;;;16.42;100.00;101697.81;3579378;40;20037;-65
2021/06/22 08:01:42;;;;;;;14.93;6.97;;;;;;;16.33;100.00;101698.75;3577305;40;20335;-64
2021/06/22 08:04:08;;;;;;;13.40;7.53;;;;;;;16.31;100.00;101700.75;3577697;40;20338;-63
2021/06/22 08:06:35;;;;;;;16.48;7.38;;;;;;;15.83;100.00;101704.63;3578912;40;20296;-65
2021/06/22 08:09:01;;;;;;;14.85;7.28;;;;;;;15.84;100.00;101703.59;3579433;40;20052;-63
2021/06/22 08:11:28;;;;;;;12.68;6.07;;;;;;;15.73;100.00;101702.75;3580164;40;20424;-65
2021/06/22 08:13:56;;;;;;;12.95;6.90;;;;;;;15.77;100.00;101704.16;3577218;40;20035;-64
2021/06/22 08:16:22;;;;;;;14.95;7.07;;;;;;;15.84;100.00;101698.16;3579860;40;20063;-64
2021/06/22 08:18:49;;;;;;;13.05;6.50;;;;;;;15.76;100.00;101701.59;3580308;40;20041;-65
2021/06/22 08:21:15;;;;;;;12.77;6.68;;;;;;;16.06;100.00;101699.63;3577557;40;20037;-64
2021/06/22 08:23:41;;;;;;;12.43;6.95;;;;;;;15.82;100.00;101705.59;3580334;40;20100;-65
2021/06/22 08:26:08;;;;;;;10.93;6.60;;;;;;;16.27;100.00;101702.94;3578936;40;20040;-65
2021/06/22 08:28:34;;;;;;;11.80;7.47;;;;;;;16.16;100.00;101700.41;3579782;40;20069;-64
2021/06/22 08:31:02;;;;;;;18.42;7.07;;;;;;;16.19;100.00;101691.97;3579459;40;20055;-64
2021/06/22 08:33:28;;;;;;;13.98;6.40;;;;;;;16.37;100.00;101691.13;3576711;40;20055;-64
2021/06/22 08:35:55;;;;;;;10.25;6.82;;;;;;;16.20;100.00;101695.56;3579000;40;20041;-66
2021/06/22 08:38:22;;;;;;;13.60;7.03;;;;;;;16.38;100.00;101698.28;3575462;40;20145;-66
2021/06/22 08:40:48;;;;;;;13.95;6.55;;;;;;;16.45;100.00;101697.50;3579855;40;20054;-64
2021/06/22 08:43:17;;;;;;;12.80;7.70;;;;;;;16.68;100.00;101697.06;3576037;40;20090;-65
2021/06/22 08:45:46;;;;;;;9.70;7.05;;;;;;;16.98;100.00;101692.25;3579680;40;20084;-64
2021/06/22 08:48:15;;;;;;;11.48;6.20;;;;;;;16.88;100.00;101691.47;3579364;40;20055;-65
2021/06/22 08:50:44;;;;;;;9.70;6.35;;;;;;;17.28;100.00;101707.22;3579620;40;20359;-65
2021/06/22 08:53:12;;;;;;;12.00;7.43;;;;;;;17.14;100.00;101702.41;3582622;40;20056;-65
2021/06/22 08:55:40;;;;;;;17.27;7.43;;;;;;;16.71;100.00;101704.91;3579787;40;20038;-65
2021/06/22 08:58:08;;;;;;;11.75;6.97;;;;;;;17.21;100.00;101705.31;3577894;40;20055;-64
2021/06/22 09:00:38;;;;;;;9.90;6.63;;;;;;;17.30;100.00;101713.38;3575987;40;20049;-66
2021/06/22 09:03:10;;;;;;;15.82;7.18;;;;;;;17.01;100.00;101719.13;3576550;40;20118;-65
2021/06/22 09:05:39;;;;;;;11.75;6.60;;;;;;;16.76;100.00;101718.88;3580710;40;20076;-65
2021/06/22 09:08:16;;;;;;;10.45;6.15;;;;;;;16.85;100.00;101713.50;3578997;40;20053;-66
2021/06/22 09:10:42;;;;;;;12.20;5.65;;;;;;;16.95;100.00;101707.00;3582308;40;20069;-65
2021/06/22 09:13:14;;;;;;;14.52;5.75;;;;;;;17.24;100.00;101708.59;3579373;40;20061;-65
2021/06/22 09:15:42;;;;;;;11.93;5.07;;;;;;;17.06;100.00;101705.03;3579965;40;20056;-66
2021/06/22 09:18:23;;;;;;;12.40;5.78;;;;;;;16.81;100.00;101705.66;3578752;40;20427;-65
2021/06/22 09:20:52;;;;;;;12.05;6.05;;;;;;;16.86;100.00;101709.75;3577259;40;20089;-65
2021/06/22 09:23:20;;;;;;;9.77;5.00;;;;;;;17.03;100.00;101706.19;3580700;40;20315;-66
2021/06/22 09:25:48;;;;;;;11.45;5.50;;;;;;;17.02;100.00;101709.94;3584694;40;20049;-65
2021/06/22 09:28:16;;;;;;;13.27;6.05;;;;;;;17.39;100.00;101708.84;3578582;40;20476;-65
2021/06/22 09:30:46;;;;;;;11.27;5.63;;;;;;;17.42;100.00;101702.25;3577497;40;20404;-64
2021/06/22 09:33:16;;;;;;;9.48;5.53;;;;;;;17.22;100.00;101709.75;3574171;40;20577;-66
2021/06/22 09:35:43;;;;;;;11.23;5.55;;;;;;;17.46;100.00;101706.31;3575283;40;20382;-65
2021/06/22 09:38:11;;;;;;;10.63;5.07;;;;;;;17.72;100.00;101700.03;3578333;40;20052;-65
2021/06/22 09:40:38;;;;;;;12.38;5.70;;;;;;;17.70;100.00;101702.91;3577738;40;20051;-64
2021/06/22 09:43:04;;;;;;;10.68;5.07;;;;;;;17.72;100.00;101703.59;3580051;40;20049;-65
2021/06/22 09:45:31;;;;;;;9.07;5.30;;;;;;;17.22;100.00;101705.16;3576118;40;20033;-64
2021/06/22 09:48:00;;;;;;;13.60;5.35;;;;;;;17.43;100.00;101701.22;3572785;40;20037;-65
2021/06/22 09:50:38;;;;;;;11.15;5.75;;;;;;;18.10;100.00;101701.41;3580554;40;20041;-67
2021/06/22 09:53:27;;;;;;;10.20;5.40;;;;;;;18.68;100.00;101698.78;3569649;40;20057;-66
2021/06/22 09:55:54;;;;;;;;;;;;;;;18.29;100.00;101696.69;3565959;40;20036;-65
2021/06/22 09:58:42;;;;;;;10.35;5.63;;;;;;;18.37;100.00;101688.50;3566356;40;19945;-66
2021/06/22 10:01:25;;;;;;;11.30;5.40;;;;;;;17.93;100.00;101696.91;3565843;40;20041;-64
2021/06/22 10:03:53;;;;;;;9.52;5.10;;;;;;;17.70;100.00;101697.47;3566897;40;20059;-65
2021/06/22 10:06:19;;;;;;;7.70;5.10;;;;;;;17.84;100.00;101694.13;3563047;40;20057;-64
2021/06/22 10:08:55;;;;;;;15.82;6.10;;;;;;;17.61;100.00;101693.84;3568123;40;20089;-66
2021/06/22 10:11:36;;;;;;;7.90;4.70;;;;;;;17.88;100.00;101685.63;3564700;40;20068;-65
2021/06/22 10:14:04;;;;;;;10.63;6.15;;;;;;;17.59;100.00;101687.69;3569202;40;20054;-65
2021/06/22 10:16:32;;;;;;;11.30;5.90;;;;;;;18.02;100.00;101690.47;3566535;40;20049;-65
2021/06/22 10:19:01;;;;;;;10.77;5.88;;;;;;;18.12;100.00;101698.50;3565571;40;20064;-64
2021/06/22 10:21:28;;;;;;;13.23;6.65;;;;;;;18.07;100.00;101704.44;3560833;40;20129;-65
2021/06/22 10:23:57;;;;;;;11.57;6.13;;;;;;;18.16;100.00;101718.97;3562400;40;20044;-64
2021/06/22 10:26:25;;;;;;;9.50;5.70;;;;;;;18.83;100.00;101699.84;3563886;40;20403;-65
2021/06/22 10:28:52;;;;;;;16.38;5.32;;;;;;;19.01;100.00;101699.69;3560156;40;20448;-64
2021/06/22 10:31:19;;;;;;;16.92;6.40;;;;;;;19.34;100.00;101706.97;3562198;40;20054;-66
2021/06/22 10:33:58;;;;;;;10.88;6.10;;;;;;;19.37;100.00;101707.47;3552809;40;20379;-63
2021/06/22 10:36:28;;;;;;;7.95;4.82;;;;;;;19.79;100.00;101711.00;3551135;40;20273;-64
2021/06/22 10:39:05;;;;;;;12.02;5.50;;;;;;;20.43;100.00;101699.03;3558527;40;20310;-63
2021/06/22 10:41:41;;;;;;;10.48;5.45;;;;;;;21.02;100.00;101703.06;3557598;40;20396;-66
2021/06/22 10:44:31;;;;;;;8.10;5.03;;;;;;;20.78;100.00;101692.16;3558886;40;20050;-65
2021/06/22 10:47:35;;;;;;;14.68;5.63;;;;;;;19.71;100.00;101703.66;3557698;40;20046;-65
2021/06/22 10:50:08;;;;;;;9.20;5.13;;;;;;;19.33;100.00;101699.81;3559161;40;20021;-64
2021/06/22 10:52:57;;;;;;;9.38;5.43;;;;;;;19.74;100.00;101710.63;3560647;40;20072;-64
2021/06/22 10:55:42;;;;;;;;;;;;;;;20.45;100.00;101689.63;3561073;40;20060;-65
2021/06/22 10:58:11;;;;;;;10.40;4.68;;;;;;;20.93;94.73;101681.25;3559480;40;19934;-65
2021/06/22 11:01:06;;;;;;;9.40;4.45;;;;;;;20.62;96.89;101673.94;3558643;40;20085;-65
2021/06/22 11:03:34;;;;;;;9.43;4.20;;;;;;;20.75;92.67;101669.78;3559344;40;20769;-65
2021/06/22 11:06:19;;;;;;;7.70;4.18;;;;;;;20.64;95.36;101671.91;3560718;40;20050;-65
2021/06/22 11:08:46;;;;;;;8.05;4.60;;;;;;;20.30;98.90;101677.75;3560098;40;20068;-66
2021/06/22 11:11:17;;;;;;;12.75;5.22;;;;;;;20.07;100.00;101691.41;3562164;40;20340;-65
2021/06/22 11:13:50;;;;;;;9.10;4.82;;;;;;;20.25;100.00;101691.97;3562414;40;20042;-64
2021/06/22 11:16:28;;;;;;;9.25;4.82;;;;;;;19.85;100.00;101704.81;3562803;40;20042;-64
2021/06/22 11:19:05;;;;;;;10.52;4.78;;;;;;;19.94;100.00;101692.81;3562457;40;20340;-65
2021/06/22 11:21:33;;;;;;;8.75;4.65;;;;;;;19.79;100.00;101697.34;3562228;40;20408;-65
2021/06/22 11:24:04;;;;;;;8.55;4.65;;;;;;;19.17;100.00;101695.22;3563251;40;20056;-66
2021/06/22 11:26:32;;;;;;;7.00;3.95;;;;;;;19.13;100.00;101692.00;3563070;40;20050;-64